Time;durP1;ratioP1;P1;durP2;ratioP2;P2;SDS_P1;SDS_P2;PMS_P1;PMS_P2;Temp;Humidity;BMP_temperature;BMP_pressure;BME280_temperature;BME280_humidity;BME280_pressure;Samples;Min_cycle;Max_cycle;Signal;HPM_P1;HPM_P2
2021/08/12 00:02:44;;;;;;;6.93;5.07;;;;;;;16.28;100.00;99506.03;10332886;28;20209;-77
2021/08/12 00:08:04;;;;;;;6.53;5.27;;;;;;;16.19;100.00;99514.13;10294099;28;20186;-78
2021/08/12 00:13:23;;;;;;;12.00;5.83;;;;;;;16.05;100.00;99513.63;10291837;28;20541;-77
2021/08/12 00:18:43;;;;;;;10.50;5.17;;;;;;;16.08;100.00;99510.00;10293764;28;20197;-79
2021/08/12 00:24:01;;;;;;;11.37;5.50;;;;;;;15.98;100.00;99509.00;10292283;28;20177;-78
2021/08/12 00:29:20;;;;;;;7.20;5.30;;;;;;;15.92;100.00;99503.56;10331552;28;20209;-75
2021/08/12 00:34:39;;;;;;;6.23;5.40;;;;;;;15.76;100.00;99501.47;10332448;28;20173;-79
2021/08/12 00:39:58;;;;;;;9.90;6.47;;;;;;;15.67;100.00;99509.56;10331890;28;20216;-78
2021/08/12 00:45:18;;;;;;;10.53;6.63;;;;;;;15.60;100.00;99503.38;10332344;28;20266;-78
2021/08/12 00:50:40;;;;;;;9.57;5.43;;;;;;;15.69;100.00;99507.16;10333282;28;20260;-78
2021/08/12 00:55:59;;;;;;;10.10;5.37;;;;;;;15.73;100.00;99504.31;10330609;28;20189;-78
2021/08/12 01:01:18;;;;;;;8.30;5.17;;;;;;;15.54;100.00;99513.38;10332839;28;20205;-78
2021/08/12 01:06:52;;;;;;;7.17;5.10;;;;;;;15.44;100.00;99509.56;10340770;28;20181;-78
2021/08/12 01:12:23;;;;;;;16.30;5.97;;;;;;;15.37;100.00;99518.00;10339582;28;20173;-78
2021/08/12 01:17:52;;;;;;;7.63;5.80;;;;;;;15.23;100.00;99515.44;10339867;28;20186;-78
2021/08/12 01:23:13;;;;;;;8.80;6.23;;;;;;;15.21;100.00;99503.97;10339834;28;20217;-76
2021/08/12 01:28:38;;;;;;;11.93;5.70;;;;;;;15.19;100.00;99503.59;10337850;28;20580;-78
2021/08/12 01:34:31;;;;;;;5.70;4.97;;;;;;;15.17;100.00;99506.03;10340197;28;20181;-78
2021/08/12 01:39:53;;;;;;;6.30;5.70;;;;;;;15.11;100.00;99506.09;10337407;28;20213;-79
2021/08/12 01:45:15;;;;;;;6.77;5.70;;;;;;;15.15;100.00;99513.16;10338598;28;20247;-76
2021/08/12 01:50:34;;;;;;;6.43;5.00;;;;;;;15.09;100.00;99517.63;10339504;28;20181;-77
2021/08/12 01:55:55;;;;;;;8.00;5.33;;;;;;;15.13;100.00;99525.88;10337384;28;20182;-77
2021/08/12 02:01:18;;;;;;;10.00;5.87;;;;;;;15.18;100.00;99515.09;10337899;28;20208;-76
2021/08/12 02:06:37;;;;;;;10.03;5.77;;;;;;;15.20;100.00;99527.34;10337357;28;20177;-78
2021/08/12 02:11:56;;;;;;;8.83;5.43;;;;;;;15.13;100.00;99518.34;10336495;28;20181;-77
2021/08/12 02:17:15;;;;;;;8.27;5.50;;;;;;;15.09;100.00;99516.84;10338012;28;20170;-76
2021/08/12 02:22:50;;;;;;;6.47;5.87;;;;;;;15.19;100.00;99513.91;10336594;28;20205;-76
2021/08/12 02:28:10;;;;;;;8.30;5.07;;;;;;;15.23;100.00;99504.38;10336026;28;20209;-76
2021/08/12 02:33:34;;;;;;;6.20;5.60;;;;;;;15.19;100.00;99509.13;10337957;28;20185;-77
2021/08/12 02:38:54;;;;;;;7.93;5.30;;;;;;;15.09;100.00;99508.53;10336395;28;20201;-77
2021/08/12 02:44:14;;;;;;;6.80;5.43;;;;;;;15.06;100.00;99517.66;10336966;28;20248;-77
2021/08/12 02:49:37;;;;;;;9.83;5.50;;;;;;;15.06;100.00;99512.13;10337366;28;20169;-77
2021/08/12 02:54:56;;;;;;;7.57;4.57;;;;;;;14.80;100.00;99505.38;10335562;28;20193;-76
2021/08/12 03:00:16;;;;;;;6.43;5.50;;;;;;;14.89;100.00;99510.41;10335579;28;20213;-78
2021/08/12 03:05:37;;;;;;;7.80;5.67;;;;;;;14.79;100.00;99503.00;10335454;28;20193;-78
2021/08/12 03:10:57;;;;;;;5.30;4.80;;;;;;;14.67;100.00;99501.59;10334145;28;20181;-78
2021/08/12 03:16:17;;;;;;;7.47;5.90;;;;;;;14.57;100.00;99498.97;10336205;28;20173;-77
2021/08/12 03:21:36;;;;;;;5.90;5.20;;;;;;;14.59;100.00;99499.34;10335207;28;20197;-76
2021/08/12 03:26:55;;;;;;;12.33;6.40;;;;;;;14.65;100.00;99515.09;10333496;28;20233;-77
2021/08/12 03:32:14;;;;;;;9.90;6.13;;;;;;;14.44;100.00;99507.03;10334519;28;20185;-76
2021/08/12 03:37:33;;;;;;;6.20;5.27;;;;;;;14.33;100.00;99508.38;10335500;28;20224;-77
2021/08/12 03:42:52;;;;;;;9.23;5.47;;;;;;;14.30;100.00;99511.19;10332177;28;20719;-77
2021/08/12 03:48:12;;;;;;;7.13;6.40;;;;;;;14.28;100.00;99502.50;10335141;28;20169;-77
2021/08/12 03:53:30;;;;;;;6.57;5.70;;;;;;;14.32;100.00;99509.56;10334522;28;20197;-76
2021/08/12 03:58:49;;;;;;;10.10;6.17;;;;;;;14.32;100.00;99498.50;10334635;28;20185;-79
2021/08/12 04:04:08;;;;;;;7.27;6.03;;;;;;;14.25;100.00;99486.75;10334118;28;20189;-76
2021/08/12 04:09:27;;;;;;;5.00;4.53;;;;;;;14.31;100.00;99496.91;10332004;28;20178;-77
2021/08/12 04:14:46;;;;;;;9.33;6.13;;;;;;;14.22;100.00;99501.41;10334115;28;20184;-77
2021/08/12 04:20:06;;;;;;;12.10;6.17;;;;;;;14.30;100.00;99497.34;10333199;28;20213;-76
2021/08/12 04:25:25;;;;;;;7.33;6.30;;;;;;;14.32;100.00;99501.25;10332448;28;20561;-76
2021/08/12 04:30:43;;;;;;;10.63;7.60;;;;;;;14.21;100.00;99500.63;10333020;28;20185;-76
2021/08/12 04:36:03;;;;;;;6.97;6.30;;;;;;;14.48;100.00;99504.22;10333046;28;20268;-76
2021/08/12 04:41:22;;;;;;;7.50;6.07;;;;;;;14.41;100.00;99504.31;10331701;28;20232;-77
2021/08/12 04:46:41;;;;;;;11.10;6.77;;;;;;;14.48;100.00;99504.22;10333370;28;20212;-76
2021/08/12 04:52:00;;;;;;;9.30;6.10;;;;;;;14.66;100.00;99524.16;10333160;28;20177;-76
2021/08/12 04:57:19;;;;;;;11.80;7.23;;;;;;;14.74;100.00;99515.34;10331865;28;20185;-77
2021/08/12 05:02:38;;;;;;;8.80;6.80;;;;;;;14.90;100.00;99517.50;10332349;28;20216;-76
2021/08/12 05:07:57;;;;;;;7.73;6.30;;;;;;;15.09;100.00;99514.84;10331824;28;20181;-77
2021/08/12 05:13:16;;;;;;;8.23;6.93;;;;;;;15.34;100.00;99521.63;10330608;28;20551;-77
2021/08/12 05:18:35;;;;;;;9.83;6.63;;;;;;;15.61;100.00;99516.78;10332141;28;20189;-77
2021/08/12 05:23:54;;;;;;;7.23;6.57;;;;;;;15.83;100.00;99514.44;10331401;28;20683;-77
2021/08/12 05:29:13;;;;;;;7.00;6.40;;;;;;;15.96;100.00;99516.19;10331510;28;20197;-77
2021/08/12 05:34:32;;;;;;;8.80;6.80;;;;;;;16.01;100.00;99533.13;10332557;28;20646;-77
2021/08/12 05:39:51;;;;;;;8.30;6.60;;;;;;;16.24;100.00;99535.84;10330940;28;20209;-77
2021/08/12 05:45:10;;;;;;;10.10;6.43;;;;;;;16.45;100.00;99543.03;10332105;28;20197;-76
2021/08/12 05:50:29;;;;;;;10.20;7.30;;;;;;;16.84;100.00;99539.00;10326609;28;20229;-77
2021/08/12 05:55:49;;;;;;;7.60;6.57;;;;;;;17.14;100.00;99533.16;10300535;28;20177;-78
2021/08/12 06:01:08;;;;;;;8.40;6.90;;;;;;;17.46;100.00;99540.78;10338442;28;20205;-79
2021/08/12 06:06:27;;;;;;;7.60;6.80;;;;;;;17.82;100.00;99545.06;10338915;28;20173;-78
2021/08/12 06:11:45;;;;;;;12.60;6.53;;;;;;;18.12;100.00;99533.50;10336532;28;20174;-78
2021/08/12 06:17:04;;;;;;;7.63;6.23;;;;;;;18.32;98.61;99537.75;10338487;28;20181;-78
2021/08/12 06:22:23;;;;;;;7.63;6.47;;;;;;;18.21;97.97;99537.28;10336860;28;20211;-78
2021/08/12 06:27:43;;;;;;;8.43;6.90;;;;;;;18.46;96.81;99537.34;10336500;28;20185;-78
2021/08/12 06:33:03;;;;;;;10.60;7.77;;;;;;;19.07;94.04;99543.53;10337973;28;20264;-79
2021/08/12 06:38:22;;;;;;;9.20;6.70;;;;;;;19.61;92.72;99547.78;10337889;28;20216;-79
2021/08/12 06:43:41;;;;;;;7.03;6.40;;;;;;;19.80;87.08;99539.16;10336498;28;20695;-78
2021/08/12 06:49:01;;;;;;;8.77;7.87;;;;;;;20.05;86.69;99520.34;10336729;28;20211;-79
2021/08/12 06:54:20;;;;;;;8.07;6.73;;;;;;;20.28;85.60;99530.34;10335816;28;20177;-77
2021/08/12 06:59:39;;;;;;;13.83;8.20;;;;;;;20.73;82.42;99531.44;10336102;28;20221;-77
2021/08/12 07:04:58;;;;;;;10.80;7.73;;;;;;;21.07;80.68;99531.38;10336686;28;20178;-78
2021/08/12 07:10:18;;;;;;;7.73;6.70;;;;;;;21.20;78.65;99532.03;10335355;28;20177;-78
2021/08/12 07:15:37;;;;;;;9.50;6.97;;;;;;;21.28;79.49;99525.69;10336416;28;20178;-77
2021/08/12 07:20:55;;;;;;;15.00;7.83;;;;;;;21.41;79.98;99531.19;10335887;28;20679;-76
2021/08/12 07:26:16;;;;;;;7.80;6.97;;;;;;;21.66;79.09;99529.00;10334301;28;20205;-78
2021/08/12 07:31:35;;;;;;;18.77;7.90;;;;;;;22.12;77.50;99522.22;10335702;28;20575;-78
2021/08/12 07:36:54;;;;;;;7.53;6.80;;;;;;;22.49;74.64;99525.34;10335621;28;20169;-78
2021/08/12 07:42:18;;;;;;;6.43;5.90;;;;;;;22.87;71.97;99536.06;10333334;28;20229;-78
2021/08/12 07:47:37;;;;;;;10.40;6.70;;;;;;;23.28;71.01;99526.91;10335239;28;20272;-78
2021/08/12 07:52:57;;;;;;;9.40;7.10;;;;;;;23.49;67.56;99535.91;10334847;28;20526;-78
2021/08/12 07:58:16;;;;;;;10.03;6.60;;;;;;;23.71;67.48;99533.59;10333393;28;20267;-78
2021/08/12 08:03:34;;;;;;;7.27;6.60;;;;;;;24.38;65.40;99542.22;10333893;28;20209;-78
2021/08/12 08:08:53;;;;;;;6.53;5.93;;;;;;;25.38;61.12;99527.47;10333074;28;20519;-78
2021/08/12 08:14:12;;;;;;;8.27;7.17;;;;;;;26.04;60.22;99536.94;10333732;28;20185;-78
2021/08/12 08:19:31;;;;;;;6.53;5.87;;;;;;;26.59;56.92;99535.59;10333971;28;20284;-80
2021/08/12 08:24:50;;;;;;;7.50;6.20;;;;;;;26.42;56.82;99539.47;10331834;28;20201;-78
2021/08/12 08:30:10;;;;;;;6.50;5.90;;;;;;;26.47;56.44;99535.97;10293662;28;20268;-79
2021/08/12 08:35:30;;;;;;;6.33;5.80;;;;;;;26.31;57.84;99533.69;10323273;28;20185;-79
2021/08/12 08:40:49;;;;;;;7.37;6.73;;;;;;;26.45;57.24;99544.16;10330825;28;20232;-79
2021/08/12 08:46:09;;;;;;;7.97;5.80;;;;;;;26.51;56.11;99530.88;10332568;28;20272;-78
2021/08/12 08:51:28;;;;;;;6.87;5.60;;;;;;;26.36;57.12;99541.44;10332684;28;20264;-79
2021/08/12 08:56:47;;;;;;;6.43;5.80;;;;;;;26.77;56.97;99524.00;10331101;28;20593;-79
2021/08/12 09:02:08;;;;;;;6.93;6.30;;;;;;;27.43;54.67;99523.31;10332504;28;20209;-77
2021/08/12 09:07:27;;;;;;;10.37;6.57;;;;;;;28.13;52.02;99524.31;10332030;28;20647;-77
2021/08/12 09:12:48;;;;;;;8.63;6.53;;;;;;;28.63;48.72;99528.88;10331732;28;20170;-79
2021/08/12 09:18:19;;;;;;;7.53;6.70;;;;;;;29.43;47.20;99528.00;10332416;28;20617;-79
2021/08/12 09:23:38;;;;;;;8.03;5.47;;;;;;;30.50;44.84;99507.63;10332829;28;20209;-77
2021/08/12 09:28:57;;;;;;;5.87;5.37;;;;;;;30.33;43.31;99509.00;10340405;28;20174;-78
2021/08/12 09:34:16;;;;;;;6.30;5.80;;;;;;;30.14;44.60;99500.28;10340321;28;20550;-77
2021/08/12 09:39:36;;;;;;;6.27;5.77;;;;;;;30.52;44.59;99498.56;10338661;28;20189;-78
2021/08/12 09:44:55;;;;;;;5.73;5.30;;;;;;;31.04;43.03;99495.19;10339325;28;20229;-78
2021/08/12 09:50:26;;;;;;;6.40;5.80;;;;;;;31.06;42.39;99503.91;10338519;28;20221;-78
2021/08/12 09:55:46;;;;;;;6.77;6.17;;;;;;;31.42;42.46;99501.84;10337168;28;20177;-79
2021/08/12 10:01:17;;;;;;;5.43;4.93;;;;;;;32.32;41.31;99499.84;10339047;28;20209;-77
2021/08/12 10:06:36;;;;;;;5.73;5.20;;;;;;;32.90;39.65;99498.78;10338978;28;20173;-79
2021/08/12 10:11:55;;;;;;;7.53;5.47;;;;;;;33.44;39.58;99499.97;10337639;28;20516;-79
2021/08/12 10:17:14;;;;;;;5.93;5.43;;;;;;;34.13;36.89;99494.84;10337555;28;20173;-78
2021/08/12 10:22:33;;;;;;;6.33;5.90;;;;;;;33.40;37.02;99496.69;10337261;28;20225;-80
2021/08/12 10:27:55;;;;;;;6.20;5.60;;;;;;;32.78;37.97;99496.66;10337032;28;20620;-80
2021/08/12 10:33:15;;;;;;;6.93;5.70;;;;;;;33.32;38.37;99489.31;10336869;28;20185;-77
2021/08/12 10:38:34;;;;;;;6.00;5.60;;;;;;;32.19;38.77;99479.81;10336393;28;20177;-78
2021/08/12 10:43:57;;;;;;;5.60;4.77;;;;;;;31.37;40.40;99483.53;10336925;28;20229;-77
2021/08/12 10:49:25;;;;;;;6.37;5.70;;;;;;;31.56;41.11;99480.78;10336245;28;20189;-77
2021/08/12 10:54:44;;;;;;;5.03;4.73;;;;;;;31.44;39.83;99476.47;10335830;28;20613;-78
2021/08/12 11:00:04;;;;;;;5.33;4.90;;;;;;;31.64;40.34;99486.13;10335872;28;20255;-77
2021/08/12 11:06:04;;;;;;;6.27;5.77;;;;;;;31.80;39.70;99473.78;10335702;28;20193;-78
2021/08/12 11:11:23;;;;;;;7.83;5.90;;;;;;;30.97;41.66;99469.34;10335179;28;20181;-76
2021/08/12 11:16:43;;;;;;;5.07;4.60;;;;;;;31.15;42.34;99468.72;10335109;28;20193;-76
2021/08/12 11:22:22;;;;;;;6.33;5.93;;;;;;;31.68;41.63;99465.91;10334648;28;20878;-76
2021/08/12 11:27:42;;;;;;;6.00;5.47;;;;;;;32.05;40.04;99469.63;10334484;28;20189;-76
2021/08/12 11:33:24;;;;;;;6.00;5.40;;;;;;;32.34;39.55;99456.59;10322693;28;20277;-77
2021/08/12 11:38:47;;;;;;;6.93;6.33;;;;;;;32.47;37.81;99448.91;10294701;28;20568;-77
2021/08/12 11:44:15;;;;;;;7.33;6.27;;;;;;;31.88;39.24;99468.25;10293499;28;20688;-76
2021/08/12 11:49:34;;;;;;;5.70;5.20;;;;;;;32.06;40.67;99459.81;10294239;28;20182;-76
2021/08/12 11:55:06;;;;;;;6.93;6.10;;;;;;;31.32;39.52;99463.66;10292454;28;20178;-77
2021/08/12 12:00:31;;;;;;;6.87;6.37;;;;;;;31.64;40.00;99463.38;10294415;28;20664;-76
2021/08/12 12:05:51;;;;;;;7.10;6.40;;;;;;;32.62;37.78;99452.81;10306276;28;20651;-76
2021/08/12 12:11:12;;;;;;;7.40;5.07;;;;;;;32.97;36.80;99443.22;10332080;28;20177;-76
2021/08/12 12:16:31;;;;;;;6.57;5.17;;;;;;;32.15;36.36;99438.72;10334096;28;20833;-76
2021/08/12 12:21:50;;;;;;;8.43;5.80;;;;;;;31.11;39.24;99429.22;10333453;28;20209;-76
2021/08/12 12:27:09;;;;;;;6.20;5.67;;;;;;;31.02;38.92;99434.44;10332684;28;20201;-76
2021/08/12 12:32:27;;;;;;;6.13;5.57;;;;;;;30.13;42.20;99435.53;10333302;28;20181;-75
2021/08/12 12:37:46;;;;;;;8.50;5.87;;;;;;;30.47;41.77;99443.34;10310578;28;20204;-76
2021/08/12 12:43:06;;;;;;;8.50;6.07;;;;;;;31.35;39.18;99434.13;10330636;28;20237;-75
2021/08/12 12:48:30;;;;;;;17.63;5.80;;;;;;;32.53;37.94;99430.41;10333515;28;20177;-76
2021/08/12 12:53:49;;;;;;;8.70;5.77;;;;;;;33.75;36.07;99430.69;10332148;28;20177;-75
2021/08/12 12:59:13;;;;;;;7.10;6.30;;;;;;;33.52;34.57;99425.94;10336953;28;20181;-77
2021/08/12 13:04:32;;;;;;;7.20;6.37;;;;;;;32.16;37.03;99434.56;10341025;28;20264;-76
2021/08/12 13:09:51;;;;;;;7.43;5.97;;;;;;;31.75;36.00;99428.31;10339886;28;20647;-76
2021/08/12 13:15:15;;;;;;;6.10;5.60;;;;;;;31.89;38.80;99425.03;10341205;28;20253;-77
2021/08/12 13:20:43;;;;;;;7.63;6.37;;;;;;;31.62;39.74;99435.97;10340575;28;20217;-76
2021/08/12 13:26:02;;;;;;;6.73;5.90;;;;;;;31.63;39.01;99397.69;10339445;28;20703;-76
2021/08/12 13:31:21;;;;;;;6.97;6.10;;;;;;;31.34;40.60;99407.78;10339454;28;20628;-76
2021/08/12 13:36:41;;;;;;;6.93;5.67;;;;;;;30.56;42.26;99417.47;10339024;28;20185;-76
2021/08/12 13:42:05;;;;;;;8.40;5.50;;;;;;;30.95;40.78;99426.47;10338428;28;20236;-76
2021/08/12 13:47:24;;;;;;;8.57;6.00;;;;;;;32.28;40.90;99413.16;10339293;28;20271;-77
2021/08/12 13:52:43;;;;;;;6.77;6.07;;;;;;;33.49;37.60;99416.38;10339378;28;20189;-76
2021/08/12 13:58:02;;;;;;;6.63;6.00;;;;;;;33.84;36.52;99401.72;10337428;28;20184;-75
2021/08/12 14:03:21;;;;;;;8.53;5.60;;;;;;;34.98;35.56;99397.53;10337710;28;20588;-76
2021/08/12 14:08:40;;;;;;;7.00;6.40;;;;;;;35.19;30.92;99381.94;10338635;28;20184;-76
2021/08/12 14:14:00;;;;;;;7.00;6.40;;;;;;;34.51;33.53;99381.78;10338958;28;20196;-77
2021/08/12 14:19:19;;;;;;;6.80;6.20;;;;;;;34.96;33.46;99382.28;10338113;28;20292;-77
2021/08/12 14:24:38;;;;;;;8.10;7.20;;;;;;;35.01;32.26;99391.47;10336915;28;20682;-77
2021/08/12 14:29:57;;;;;;;6.90;6.33;;;;;;;34.13;33.67;99389.16;10338341;28;20216;-77
2021/08/12 14:35:16;;;;;;;8.47;6.97;;;;;;;33.65;34.95;99375.38;10337967;28;20256;-76
2021/08/12 14:40:37;;;;;;;13.70;7.70;;;;;;;34.06;33.61;99369.84;10336257;28;20228;-76
2021/08/12 14:45:56;;;;;;;7.70;6.90;;;;;;;33.69;33.74;99375.78;10337150;28;20177;-76
2021/08/12 14:51:16;;;;;;;7.87;7.23;;;;;;;33.37;33.94;99380.81;10336413;28;20578;-76
2021/08/12 14:56:34;;;;;;;11.83;7.83;;;;;;;33.18;34.51;99370.81;10335707;28;20185;-75
2021/08/12 15:01:53;;;;;;;7.43;6.83;;;;;;;33.14;35.24;99364.66;10335469;28;20212;-76
2021/08/12 15:07:12;;;;;;;7.10;6.53;;;;;;;34.20;33.71;99357.06;10336313;28;20173;-75
2021/08/12 15:12:32;;;;;;;7.50;6.80;;;;;;;35.12;30.61;99347.53;10335329;28;20184;-77
2021/08/12 15:17:51;;;;;;;9.53;7.07;;;;;;;35.18;30.06;99346.06;10336490;28;20624;-77
2021/08/12 15:23:09;;;;;;;8.40;7.60;;;;;;;34.43;31.26;99340.94;10334704;28;20209;-76
2021/08/12 15:28:29;;;;;;;7.60;6.90;;;;;;;34.01;33.13;99339.28;10334866;28;20172;-76
2021/08/12 15:33:49;;;;;;;8.40;7.60;;;;;;;34.34;32.65;99344.25;10335733;28;20164;-77
2021/08/12 15:39:08;;;;;;;8.53;7.07;;;;;;;34.61;31.13;99335.03;10333632;28;20292;-77
2021/08/12 15:44:27;;;;;;;7.83;6.97;;;;;;;35.17;29.85;99330.22;10334547;28;20220;-77
2021/08/12 15:49:46;;;;;;;8.00;7.20;;;;;;;35.37;30.72;99326.56;10335043;28;20525;-78
2021/08/12 15:55:10;;;;;;;7.90;7.10;;;;;;;35.62;28.81;99324.81;10333707;28;20189;-78
2021/08/12 16:00:29;;;;;;;7.80;7.20;;;;;;;35.79;27.99;99319.34;10334511;28;20659;-77
2021/08/12 16:05:48;;;;;;;8.33;7.53;;;;;;;35.73;27.00;99318.75;10334221;28;20185;-78
2021/08/12 16:11:07;;;;;;;8.83;7.80;;;;;;;34.80;28.98;99309.88;10333116;28;20181;-75
2021/08/12 16:16:26;;;;;;;7.97;7.20;;;;;;;33.87;31.79;99317.78;10334232;28;20181;-77
2021/08/12 16:21:45;;;;;;;7.43;6.83;;;;;;;34.60;31.63;99304.16;10293257;28;20684;-76
2021/08/12 16:27:05;;;;;;;8.00;7.30;;;;;;;34.61;30.27;99294.28;10311126;28;20197;-77
2021/08/12 16:32:24;;;;;;;8.60;7.80;;;;;;;34.07;30.18;99300.00;10333419;28;20180;-77
2021/08/12 16:37:43;;;;;;;13.00;7.50;;;;;;;33.75;31.98;99299.38;10333656;28;20172;-77
2021/08/12 16:43:02;;;;;;;10.40;7.27;;;;;;;33.37;34.07;99295.22;10331484;28;20225;-77
2021/08/12 16:48:21;;;;;;;8.60;7.90;;;;;;;32.89;34.10;99292.00;10332701;28;20189;-77
2021/08/12 16:53:40;;;;;;;9.40;8.07;;;;;;;32.41;35.51;99282.97;10299461;28;20185;-77
2021/08/12 16:58:59;;;;;;;9.97;8.50;;;;;;;31.91;35.74;99287.88;10321464;28;20189;-76
2021/08/12 17:04:18;;;;;;;14.00;7.23;;;;;;;31.41;37.04;99284.16;10292923;28;20564;-76
2021/08/12 17:09:37;;;;;;;8.37;7.57;;;;;;;31.03;36.67;99276.81;10291538;28;20182;-77
2021/08/12 17:14:56;;;;;;;10.73;7.80;;;;;;;30.65;36.88;99275.13;10293006;28;20663;-77
2021/08/12 17:20:15;;;;;;;9.67;7.23;;;;;;;30.47;36.77;99270.13;10307934;28;20217;-76
2021/08/12 17:25:35;;;;;;;9.93;8.10;;;;;;;31.00;35.81;99263.66;10316162;28;20181;-76
2021/08/12 17:30:54;;;;;;;9.47;7.43;;;;;;;31.11;37.18;99266.41;10332391;28;20186;-76
2021/08/12 17:36:13;;;;;;;11.80;7.93;;;;;;;31.95;36.50;99263.50;10332577;28;20181;-77
2021/08/12 17:41:32;;;;;;;8.60;7.80;;;;;;;32.20;37.14;99264.94;10330649;28;20703;-76
2021/08/12 17:46:51;;;;;;;8.90;8.10;;;;;;;32.65;37.29;99268.59;10336756;28;20174;-75
2021/08/12 17:52:10;;;;;;;16.17;8.23;;;;;;;31.75;39.12;99268.97;10339661;28;20181;-76
2021/08/12 17:57:29;;;;;;;19.63;9.00;;;;;;;30.87;41.08;99270.00;10337895;28;20197;-76
2021/08/12 18:02:51;;;;;;;10.53;7.60;;;;;;;29.66;44.11;99274.25;10338766;28;20212;-77
2021/08/12 18:08:11;;;;;;;9.43;7.87;;;;;;;28.61;46.77;99270.19;10339067;28;20201;-76
2021/08/12 18:13:31;;;;;;;14.23;8.70;;;;;;;28.03;49.50;99281.75;10337717;28;20177;-77
2021/08/12 18:18:50;;;;;;;13.50;8.77;;;;;;;27.44;53.26;99281.81;10338697;28;20205;-76
2021/08/12 18:24:09;;;;;;;24.87;9.00;;;;;;;26.83;56.57;99291.22;10337325;28;20189;-76
2021/08/12 18:29:28;;;;;;;14.43;8.13;;;;;;;26.10;59.70;99298.03;10337793;28;20268;-77
2021/08/12 18:34:47;;;;;;;11.60;8.20;;;;;;;25.73;61.51;99305.59;10338049;28;20182;-77
2021/08/12 18:40:07;;;;;;;13.10;8.80;;;;;;;25.49;62.21;99321.97;10335228;28;20209;-76
2021/08/12 18:45:26;;;;;;;18.07;13.83;;;;;;;25.19;63.95;99326.19;10337840;28;20181;-75
2021/08/12 18:50:46;;;;;;;13.37;10.30;;;;;;;24.98;63.98;99337.91;10337579;28;20181;-76
2021/08/12 18:56:05;;;;;;;10.80;9.37;;;;;;;24.75;65.86;99335.22;10335391;28;20185;-75
2021/08/12 19:01:24;;;;;;;13.30;9.60;;;;;;;24.38;66.81;99345.34;10336874;28;20663;-75
2021/08/12 19:06:43;;;;;;;11.53;8.60;;;;;;;24.24;66.94;99351.72;10336204;28;20695;-77
2021/08/12 19:12:03;;;;;;;12.00;8.03;;;;;;;24.11;66.43;99359.69;10302420;28;20282;-75
2021/08/12 19:17:22;;;;;;;10.33;8.17;;;;;;;23.95;68.96;99359.38;10336197;28;20527;-75
2021/08/12 19:22:47;;;;;;;14.00;9.33;;;;;;;23.69;69.41;99381.56;10335809;28;20197;-76
2021/08/12 19:28:06;;;;;;;12.77;8.00;;;;;;;23.53;69.48;99387.63;10334488;28;20608;-75
2021/08/12 19:33:25;;;;;;;9.43;8.43;;;;;;;23.47;71.64;99395.16;10335529;28;20193;-75
2021/08/12 19:38:44;;;;;;;10.83;8.63;;;;;;;23.23;73.23;99395.63;10334281;28;20173;-74
2021/08/12 19:44:03;;;;;;;9.80;8.80;;;;;;;22.83;74.58;99407.16;10334470;28;20229;-75
2021/08/12 19:49:23;;;;;;;26.23;9.90;;;;;;;22.60;76.03;99409.91;10334526;28;20580;-75
2021/08/12 19:54:41;;;;;;;12.27;9.73;;;;;;;22.33;77.45;99417.59;10318260;28;20616;-75
2021/08/12 20:00:00;;;;;;;11.77;9.10;;;;;;;22.00;79.94;99428.66;10334654;28;20204;-75
2021/08/12 20:05:19;;;;;;;9.83;8.70;;;;;;;21.73;81.12;99420.22;10333394;28;20240;-74
2021/08/12 20:10:38;;;;;;;8.93;8.03;;;;;;;21.53;82.01;99416.28;10332565;28;20517;-74
2021/08/12 20:15:58;;;;;;;23.20;9.10;;;;;;;21.48;81.50;99408.50;10334294;28;20185;-76
2021/08/12 20:21:17;;;;;;;9.63;8.63;;;;;;;21.41;84.28;99413.63;10333552;28;20212;-75
2021/08/12 20:26:36;;;;;;;15.90;9.60;;;;;;;21.22;86.08;99412.03;10332900;28;20245;-76
2021/08/12 20:31:55;;;;;;;13.13;9.60;;;;;;;20.99;87.60;99404.19;10332817;28;20518;-75
2021/08/12 20:37:14;;;;;;;12.07;9.93;;;;;;;20.87;88.48;99410.66;10332846;28;20181;-75
2021/08/12 20:42:33;;;;;;;17.80;11.77;;;;;;;20.79;88.94;99400.25;10331747;28;20324;-75
2021/08/12 20:47:52;;;;;;;11.50;10.30;;;;;;;20.57;89.38;99399.47;10333277;28;20184;-76
2021/08/12 20:53:11;;;;;;;12.50;9.40;;;;;;;20.62;86.38;99396.84;10331776;28;20189;-75
2021/08/12 20:58:30;;;;;;;12.03;10.03;;;;;;;20.66;86.89;99388.31;10318220;28;20189;-74
2021/08/12 21:03:50;;;;;;;14.00;10.43;;;;;;;20.58;87.03;99384.25;10327888;28;20221;-76
2021/08/12 21:09:09;;;;;;;13.80;9.90;;;;;;;20.49;89.74;99393.38;10331953;28;20668;-77
2021/08/12 21:14:28;;;;;;;15.87;9.73;;;;;;;20.36;89.16;99384.28;10331951;28;20636;-76
2021/08/12 21:19:48;;;;;;;14.60;10.33;;;;;;;20.21;90.52;99382.50;10335713;28;20288;-76
2021/08/12 21:25:08;;;;;;;17.40;9.17;;;;;;;19.95;91.59;99371.94;10339656;28;20272;-75
2021/08/12 21:30:27;;;;;;;10.00;8.93;;;;;;;19.84;89.89;99374.28;10340098;28;20231;-75
2021/08/12 21:35:46;;;;;;;12.63;9.40;;;;;;;19.83;92.08;99383.91;10340364;28;20568;-75
2021/08/12 21:41:06;;;;;;;14.60;9.23;;;;;;;19.66;94.01;99385.31;10337419;28;20225;-75
2021/08/12 21:46:24;;;;;;;13.90;10.00;;;;;;;19.57;94.10;99388.03;10339993;28;20178;-75
2021/08/12 21:51:43;;;;;;;14.30;9.50;;;;;;;19.34;95.52;99386.41;10338724;28;20185;-76
2021/08/12 21:57:03;;;;;;;17.57;9.73;;;;;;;19.31;96.26;99386.53;10338390;28;20181;-75
2021/08/12 22:02:23;;;;;;;10.60;9.63;;;;;;;19.16;96.88;99396.59;10337354;28;20216;-76
2021/08/12 22:07:42;;;;;;;10.53;9.20;;;;;;;19.08;98.30;99378.53;10339216;28;20181;-76
2021/08/12 22:13:01;;;;;;;14.20;10.07;;;;;;;19.01;98.36;99389.16;10336846;28;20256;-76
2021/08/12 22:18:20;;;;;;;17.20;10.00;;;;;;;19.12;97.99;99395.97;10338687;28;20205;-76
2021/08/12 22:23:39;;;;;;;18.03;10.67;;;;;;;19.07;98.54;99399.25;10337914;28;20208;-76
2021/08/12 22:28:58;;;;;;;16.47;10.87;;;;;;;18.83;100.00;99427.97;10337355;28;20526;-76
2021/08/12 22:34:17;;;;;;;14.60;9.43;;;;;;;18.58;100.00;99428.72;10337299;28;20539;-75
2021/08/12 22:39:38;;;;;;;15.17;9.57;;;;;;;18.49;100.00;99434.19;10336766;28;20204;-76
2021/08/12 22:44:57;;;;;;;22.87;10.00;;;;;;;18.54;100.00;99439.19;10337110;28;20692;-76
2021/08/12 22:50:16;;;;;;;19.27;10.20;;;;;;;18.54;100.00;99444.78;10337564;28;20181;-75
2021/08/12 22:55:35;;;;;;;14.37;10.40;;;;;;;18.45;100.00;99452.22;10336270;28;20586;-75
2021/08/12 23:00:54;;;;;;;21.27;10.20;;;;;;;18.27;100.00;99453.94;10335930;28;20212;-75
2021/08/12 23:06:13;;;;;;;18.70;10.50;;;;;;;18.19;100.00;99445.00;10336787;28;20778;-76
2021/08/12 23:11:32;;;;;;;16.97;12.03;;;;;;;18.16;100.00;99467.38;10335586;28;20603;-75
2021/08/12 23:16:51;;;;;;;18.23;10.73;;;;;;;18.14;100.00;99469.81;10336419;28;20551;-75
2021/08/12 23:22:09;;;;;;;13.03;10.17;;;;;;;18.05;100.00;99455.75;10336117;28;20237;-76
2021/08/12 23:27:28;;;;;;;16.07;10.20;;;;;;;17.92;100.00;99457.72;10334898;28;20189;-75
2021/08/12 23:32:48;;;;;;;18.27;9.17;;;;;;;18.06;100.00;99454.53;10335244;28;20663;-74
2021/08/12 23:38:06;;;;;;;14.40;10.70;;;;;;;17.93;100.00;99457.25;10295494;28;20182;-74
2021/08/12 23:43:25;;;;;;;14.60;10.43;;;;;;;17.80;100.00;99463.97;10292651;28;20229;-74
2021/08/12 23:48:46;;;;;;;19.33;10.30;;;;;;;17.69;100.00;99455.13;10295056;28;20182;-74
2021/08/12 23:54:05;;;;;;;18.97;10.10;;;;;;;17.61;100.00;99439.84;10293741;28;20186;-74
2021/08/12 23:59:24;;;;;;;14.90;10.20;;;;;;;17.60;100.00;99433.50;10294687;28;20182;-76
